Time;durP1;ratioP1;P1;durP2;ratioP2;P2;SDS_P1;SDS_P2;PMS_P1;PMS_P2;Temp;Humidity;BMP_temperature;BMP_pressure;BME280_temperature;BME280_humidity;BME280_pressure;Samples;Min_cycle;Max_cycle;Signal;HPM_P1;HPM_P2
2022/05/09 00:01:46;;;;;;;10.88;4.70;;;;;;;;;;5005378;28;20049;-65
2022/05/09 00:04:15;;;;;;;12.35;5.10;;;;;;;;;;5021552;28;20025;-65
2022/05/09 00:06:41;;;;;;;11.38;4.97;;;;;;;;;;5020533;28;20025;-64
2022/05/09 00:09:06;;;;;;;10.93;4.30;;;;;;;;;;5019614;28;20353;-66
2022/05/09 00:11:32;;;;;;;10.20;4.80;;;;;;;;;;5016192;28;20029;-65
2022/05/09 00:13:57;;;;;;;9.98;4.72;;;;;;;;;;5023801;28;20014;-65
2022/05/09 00:16:22;;;;;;;11.73;5.25;;;;;;;;;;5022337;28;20026;-65
2022/05/09 00:18:48;;;;;;;12.55;4.90;;;;;;;;;;5023849;28;20128;-64
2022/05/09 00:21:16;;;;;;;12.52;4.72;;;;;;;;;;5021408;28;20124;-65
2022/05/09 00:23:42;;;;;;;11.38;4.68;;;;;;;;;;5003029;28;20021;-65
2022/05/09 00:26:07;;;;;;;15.82;4.75;;;;;;;;;;5018061;28;20545;-64
2022/05/09 00:28:33;;;;;;;14.45;5.20;;;;;;;;;;5018627;28;20051;-64
2022/05/09 00:30:58;;;;;;;10.02;4.60;;;;;;;;;;5021516;28;20045;-64
2022/05/09 00:33:24;;;;;;;9.13;3.95;;;;;;;;;;5020715;28;20029;-65
2022/05/09 00:35:50;;;;;;;10.93;4.35;;;;;;;;;;5023187;28;20064;-63
2022/05/09 00:38:16;;;;;;;14.25;4.63;;;;;;;;;;5019480;28;20491;-66
2022/05/09 00:41:28;;;;;;;13.55;3.60;;;;;;;;;;5002524;28;20032;-65
2022/05/09 00:43:31;;;;;;;12.05;4.22;;;;;;;;;;5020762;28;20384;-64
2022/05/09 00:45:57;;;;;;;10.95;3.65;;;;;;;;;;5019980;28;20483;-65
2022/05/09 00:48:22;;;;;;;10.77;3.75;;;;;;;;;;5023174;28;20072;-64
2022/05/09 00:50:47;;;;;;;15.23;3.50;;;;;;;;;;5025349;28;20025;-65
2022/05/09 00:53:13;;;;;;;10.25;3.70;;;;;;;;;;5022145;28;20029;-66
2022/05/09 00:55:42;;;;;;;9.02;3.10;;;;;;;;;;5023440;28;20435;-65
2022/05/09 00:58:21;;;;;;;13.90;4.20;;;;;;;;;;5021888;28;20064;-65
2022/05/09 01:00:47;;;;;;;12.13;3.20;;;;;;;;;;5024659;28;20040;-66
2022/05/09 01:03:22;;;;;;;11.48;3.75;;;;;;;;;;5023762;28;20028;-65
2022/05/09 01:05:50;;;;;;;10.88;3.72;;;;;;;;;;5024181;28;20126;-65
2022/05/09 01:08:25;;;;;;;11.18;3.72;;;;;;;;;;5023095;28;20377;-65
2022/05/09 01:10:55;;;;;;;11.40;3.47;;;;;;;;;;5020747;28;20029;-66
2022/05/09 01:13:25;;;;;;;8.55;3.53;;;;;;;;;;5023303;28;20487;-65
2022/05/09 01:15:53;;;;;;;11.48;3.92;;;;;;;;;;5024757;28;20033;-66
2022/05/09 01:18:20;;;;;;;10.10;3.33;;;;;;;;;;5024736;28;20327;-65
2022/05/09 01:20:46;;;;;;;13.45;4.22;;;;;;;;;;5023804;28;20040;-65
2022/05/09 01:23:12;;;;;;;7.15;3.67;;;;;;;;;;5020557;28;20025;-67
2022/05/09 01:25:39;;;;;;;12.43;4.20;;;;;;;;;;5022543;28;20022;-65
2022/05/09 01:28:04;;;;;;;10.02;3.53;;;;;;;;;;5021552;28;20028;-65
2022/05/09 01:30:39;;;;;;;8.40;3.35;;;;;;;;;;5022111;28;20393;-65
2022/05/09 01:33:11;;;;;;;10.63;3.72;;;;;;;;;;5020975;28;20022;-64
2022/05/09 01:35:38;;;;;;;11.23;3.65;;;;;;;;;;5023486;28;20432;-65
2022/05/09 01:38:24;;;;;;;11.70;3.72;;;;;;;;;;5022953;28;20080;-66
2022/05/09 01:40:50;;;;;;;9.75;3.75;;;;;;;;;;5022299;28;20040;-65
2022/05/09 01:43:33;;;;;;;13.45;4.30;;;;;;;;;;5005224;28;20373;-65
2022/05/09 01:45:58;;;;;;;12.77;3.77;;;;;;;;;;5023380;28;20018;-65
2022/05/09 01:51:08;;;;;;;9.60;3.70;;;;;;;;;;5023212;28;20451;-65
2022/05/09 01:53:33;;;;;;;11.07;3.45;;;;;;;;;;5020821;28;20064;-65
2022/05/09 01:55:59;;;;;;;11.30;3.90;;;;;;;;;;5021947;28;20033;-67
2022/05/09 01:58:25;;;;;;;9.70;3.67;;;;;;;;;;5005661;28;20124;-65
2022/05/09 02:00:53;;;;;;;11.05;3.67;;;;;;;;;;5004843;28;20029;-65
2022/05/09 02:03:19;;;;;;;9.68;3.53;;;;;;;;;;5022006;28;20176;-64
2022/05/09 02:05:44;;;;;;;12.10;4.28;;;;;;;;;;5021463;28;20615;-65
2022/05/09 02:08:10;;;;;;;12.38;4.38;;;;;;;;;;5020520;28;20025;-65
2022/05/09 02:10:40;;;;;;;12.63;3.95;;;;;;;;;;5020970;28;20025;-64
2022/05/09 02:13:05;;;;;;;9.98;3.58;;;;;;;;;;5021480;28;20025;-65
2022/05/09 02:15:31;;;;;;;11.07;3.85;;;;;;;;;;5023179;28;20438;-65
2022/05/09 02:17:57;;;;;;;11.88;4.40;;;;;;;;;;5021052;28;20124;-65
2022/05/09 02:20:22;;;;;;;10.93;3.60;;;;;;;;;;5024411;28;20155;-65
2022/05/09 02:22:47;;;;;;;10.70;3.75;;;;;;;;;;5025621;28;20033;-65
2022/05/09 02:25:31;;;;;;;14.90;3.85;;;;;;;;;;5025219;28;20040;-66
2022/05/09 02:27:57;;;;;;;15.20;4.45;;;;;;;;;;5019497;28;20055;-65
2022/05/09 02:30:23;;;;;;;10.15;4.05;;;;;;;;;;5023696;28;20081;-64
2022/05/09 02:32:48;;;;;;;11.25;3.80;;;;;;;;;;5023302;28;20061;-64
2022/05/09 02:35:14;;;;;;;13.45;4.15;;;;;;;;;;5024749;28;20457;-65
2022/05/09 02:37:39;;;;;;;12.65;4.13;;;;;;;;;;5021911;28;20032;-64
2022/05/09 02:40:04;;;;;;;13.80;4.18;;;;;;;;;;5023499;28;20063;-65
2022/05/09 02:42:30;;;;;;;13.32;3.95;;;;;;;;;;5019817;28;20526;-65
2022/05/09 02:44:55;;;;;;;18.48;4.43;;;;;;;;;;5023688;28;20039;-65
2022/05/09 02:47:20;;;;;;;10.73;3.78;;;;;;;;;;5022780;28;20121;-64
2022/05/09 02:49:46;;;;;;;16.10;4.72;;;;;;;;;;5006790;28;20217;-64
2022/05/09 02:52:12;;;;;;;11.50;3.78;;;;;;;;;;5024352;28;20026;-66
2022/05/09 02:54:37;;;;;;;11.25;3.97;;;;;;;;;;5020761;28;20033;-65
2022/05/09 02:57:02;;;;;;;9.82;4.28;;;;;;;;;;5021107;28;20026;-64
2022/05/09 02:59:31;;;;;;;12.43;4.80;;;;;;;;;;5005344;28;20040;-67
2022/05/09 03:01:56;;;;;;;11.88;4.03;;;;;;;;;;5023072;28;20472;-65
2022/05/09 03:04:40;;;;;;;13.80;3.78;;;;;;;;;;5021984;28;20028;-65
2022/05/09 03:07:06;;;;;;;11.55;3.95;;;;;;;;;;5023425;28;20055;-65
2022/05/09 03:09:32;;;;;;;12.75;3.80;;;;;;;;;;5020246;28;20017;-64
2022/05/09 03:11:58;;;;;;;10.32;3.90;;;;;;;;;;5001655;28;20056;-65
2022/05/09 03:14:23;;;;;;;10.48;4.20;;;;;;;;;;5023920;28;20664;-64
2022/05/09 03:16:48;;;;;;;11.18;4.60;;;;;;;;;;5023198;28;20531;-64
2022/05/09 03:19:13;;;;;;;10.88;3.97;;;;;;;;;;5023344;28;20538;-65
2022/05/09 03:21:39;;;;;;;14.18;4.47;;;;;;;;;;5022128;28;20031;-64
2022/05/09 03:24:04;;;;;;;14.57;4.72;;;;;;;;;;5020830;28;20396;-64
2022/05/09 03:26:31;;;;;;;10.07;4.50;;;;;;;;;;5018199;28;20026;-64
2022/05/09 03:28:57;;;;;;;14.73;5.00;;;;;;;;;;5019561;28;20468;-65
2022/05/09 03:31:22;;;;;;;12.65;4.53;;;;;;;;;;5020491;28;20028;-64
2022/05/09 03:33:48;;;;;;;10.38;4.13;;;;;;;;;;5020987;28;20033;-64
2022/05/09 03:36:13;;;;;;;9.25;4.47;;;;;;;;;;5022304;28;20037;-65
2022/05/09 03:38:38;;;;;;;11.48;4.70;;;;;;;;;;5018357;28;20018;-65
2022/05/09 03:41:04;;;;;;;12.98;5.10;;;;;;;;;;5020375;28;20068;-64
2022/05/09 03:43:29;;;;;;;14.55;4.70;;;;;;;;;;5021287;28;20025;-65
2022/05/09 03:45:55;;;;;;;12.27;4.97;;;;;;;;;;5020107;28;20044;-65
2022/05/09 03:48:20;;;;;;;12.65;4.68;;;;;;;;;;5020263;28;20030;-65
2022/05/09 03:50:46;;;;;;;14.52;4.78;;;;;;;;;;5016631;28;20037;-64
2022/05/09 03:53:11;;;;;;;10.95;4.32;;;;;;;;;;5019871;28;20151;-65
2022/05/09 03:55:37;;;;;;;15.45;4.90;;;;;;;;;;5020338;28;20021;-64
2022/05/09 03:58:03;;;;;;;16.02;5.72;;;;;;;;;;5016803;28;20388;-65
2022/05/09 04:00:29;;;;;;;13.73;5.30;;;;;;;;;;5023118;28;20017;-64
2022/05/09 04:02:55;;;;;;;11.68;4.90;;;;;;;;;;5020905;28;20358;-65
2022/05/09 04:05:20;;;;;;;12.00;4.93;;;;;;;;;;5019896;28;20375;-64
2022/05/09 04:07:52;;;;;;;17.35;5.25;;;;;;;;;;5017957;28;20044;-66
2022/05/09 04:10:19;;;;;;;14.15;5.45;;;;;;;;;;5019640;28;20438;-64
2022/05/09 04:12:44;;;;;;;12.10;5.38;;;;;;;;;;5015030;28;20447;-64
2022/05/09 04:17:54;;;;;;;12.90;5.25;;;;;;;;;;5019709;28;20971;-65
2022/05/09 04:20:20;;;;;;;14.55;5.63;;;;;;;;;;5022867;28;20049;-65
2022/05/09 04:22:45;;;;;;;12.27;4.90;;;;;;;;;;5021982;28;20096;-64
2022/05/09 04:25:12;;;;;;;10.70;5.28;;;;;;;;;;5023224;28;20124;-65
2022/05/09 04:27:38;;;;;;;17.25;5.80;;;;;;;;;;5023580;28;20353;-65
2022/05/09 04:30:05;;;;;;;12.57;4.72;;;;;;;;;;5009750;28;20073;-65
2022/05/09 04:32:32;;;;;;;15.52;5.75;;;;;;;;;;5026144;28;20192;-64
2022/05/09 04:34:57;;;;;;;14.20;5.05;;;;;;;;;;5022302;28;20507;-67
2022/05/09 04:37:22;;;;;;;9.73;5.05;;;;;;;;;;5025857;28;20506;-64
2022/05/09 04:39:48;;;;;;;14.57;5.30;;;;;;;;;;5023425;28;20021;-64
2022/05/09 04:42:14;;;;;;;14.95;5.63;;;;;;;;;;5023461;28;20115;-65
2022/05/09 04:44:40;;;;;;;13.35;5.35;;;;;;;;;;5025150;28;20457;-65
2022/05/09 04:47:05;;;;;;;11.75;5.57;;;;;;;;;;5023233;28;20029;-64
2022/05/09 04:49:30;;;;;;;12.75;5.50;;;;;;;;;;5023787;28;20358;-64
2022/05/09 04:51:56;;;;;;;11.45;5.13;;;;;;;;;;5023980;28;20503;-65
2022/05/09 04:54:21;;;;;;;19.40;5.90;;;;;;;;;;5022588;28;20424;-65
2022/05/09 04:56:46;;;;;;;14.82;5.57;;;;;;;;;;5019982;28;20026;-64
2022/05/09 04:59:11;;;;;;;13.38;5.28;;;;;;;;;;5025743;28;20040;-65
2022/05/09 05:01:37;;;;;;;13.38;5.53;;;;;;;;;;5026053;28;20373;-65
2022/05/09 05:04:05;;;;;;;11.90;5.60;;;;;;;;;;5020621;28;20422;-65
2022/05/09 05:06:31;;;;;;;13.50;5.43;;;;;;;;;;5007319;28;20625;-66
2022/05/09 05:08:56;;;;;;;11.45;5.00;;;;;;;;;;5001982;28;20238;-65
2022/05/09 05:11:21;;;;;;;12.27;5.43;;;;;;;;;;5020063;28;20021;-66
2022/05/09 05:13:46;;;;;;;11.45;5.43;;;;;;;;;;5023025;28;20037;-66
2022/05/09 05:16:12;;;;;;;14.70;5.70;;;;;;;;;;5024392;28;20029;-65
2022/05/09 05:18:37;;;;;;;15.73;5.95;;;;;;;;;;5024468;28;20105;-66
2022/05/09 05:21:13;;;;;;;15.05;6.05;;;;;;;;;;5022493;28;20411;-65
2022/05/09 05:23:38;;;;;;;12.25;5.65;;;;;;;;;;5023512;28;20017;-65
2022/05/09 05:26:04;;;;;;;12.35;5.53;;;;;;;;;;5017337;28;20033;-66
2022/05/09 05:28:32;;;;;;;12.05;5.32;;;;;;;;;;5024551;28;20017;-65
2022/05/09 05:31:10;;;;;;;18.70;5.65;;;;;;;;;;5024165;28;20049;-65
2022/05/09 05:33:35;;;;;;;11.30;5.70;;;;;;;;;;5023950;28;20030;-66
2022/05/09 05:36:00;;;;;;;12.50;5.70;;;;;;;;;;5022394;28;20589;-65
2022/05/09 05:38:27;;;;;;;11.38;5.38;;;;;;;;;;5021351;28;20036;-66
2022/05/09 05:41:02;;;;;;;15.95;5.93;;;;;;;;;;5020748;28;20025;-65
2022/05/09 05:43:27;;;;;;;14.63;5.15;;;;;;;;;;5007567;28;20029;-66
2022/05/09 05:45:56;;;;;;;12.98;5.35;;;;;;;;;;5021503;28;20088;-65
2022/05/09 05:48:21;;;;;;;14.32;5.30;;;;;;;;;;5023359;28;20021;-65
2022/05/09 05:50:47;;;;;;;12.43;5.00;;;;;;;;;;5023226;28;20395;-65
2022/05/09 05:53:12;;;;;;;12.13;5.10;;;;;;;;;;5023082;28;20451;-66
2022/05/09 05:55:40;;;;;;;14.77;5.65;;;;;;;;;;5023355;28;20026;-66
2022/05/09 05:58:06;;;;;;;17.23;6.05;;;;;;;;;;5003607;28;20457;-65
2022/05/09 06:00:32;;;;;;;13.07;6.00;;;;;;;;;;5023761;28;20301;-66
2022/05/09 06:02:57;;;;;;;12.50;5.32;;;;;;;;;;5024867;28;20026;-66
2022/05/09 06:05:22;;;;;;;13.55;5.60;;;;;;;;;;5029890;28;20491;-65
2022/05/09 06:07:51;;;;;;;14.07;5.60;;;;;;;;;;5022992;28;20034;-65
2022/05/09 06:10:17;;;;;;;9.27;4.97;;;;;;;;;;5022411;28;20028;-65
2022/05/09 06:12:43;;;;;;;12.70;5.18;;;;;;;;;;5021285;28;20025;-66
2022/05/09 06:17:53;;;;;;;13.20;5.43;;;;;;;;;;5021721;28;20035;-65
2022/05/09 06:20:18;;;;;;;13.93;5.88;;;;;;;;;;5024282;28;20017;-65
2022/05/09 06:22:47;;;;;;;12.63;4.80;;;;;;;;;;5024164;28;20360;-65
2022/05/09 06:25:13;;;;;;;13.07;5.65;;;;;;;;;;5004277;28;20026;-65
2022/05/09 06:27:39;;;;;;;9.48;5.03;;;;;;;;;;5020856;28;20053;-65
2022/05/09 06:30:05;;;;;;;12.65;5.80;;;;;;;;;;5023026;28;20080;-66
2022/05/09 06:32:30;;;;;;;11.35;5.18;;;;;;;;;;5022747;28;20087;-67
2022/05/09 06:34:56;;;;;;;13.18;5.65;;;;;;;;;;5020507;28;20021;-65
2022/05/09 06:37:21;;;;;;;17.75;5.60;;;;;;;;;;5023118;28;20515;-64
2022/05/09 06:39:49;;;;;;;15.32;5.38;;;;;;;;;;5021392;28;20075;-64
2022/05/09 06:42:15;;;;;;;13.43;5.68;;;;;;;;;;5019437;28;20432;-65
2022/05/09 06:44:40;;;;;;;13.23;5.47;;;;;;;;;;5017519;28;20090;-65
2022/05/09 06:47:06;;;;;;;16.55;5.88;;;;;;;;;;5021157;28;20036;-65
2022/05/09 06:49:31;;;;;;;12.70;5.68;;;;;;;;;;5022492;28;20079;-64
2022/05/09 06:51:57;;;;;;;9.88;5.40;;;;;;;;;;5021433;28;20029;-65
2022/05/09 06:54:22;;;;;;;12.80;5.17;;;;;;;;;;5020935;28;20028;-66
2022/05/09 06:56:51;;;;;;;11.85;5.85;;;;;;;;;;5019041;28;20033;-65
2022/05/09 06:59:19;;;;;;;17.20;5.07;;;;;;;;;;5021520;28;20018;-66
2022/05/09 07:01:45;;;;;;;15.98;6.45;;;;;;;;;;5022259;28;20101;-66
2022/05/09 07:04:10;;;;;;;15.18;6.07;;;;;;;;;;5019977;28;20726;-66
2022/05/09 07:06:36;;;;;;;14.52;5.70;;;;;;;;;;5021378;28;20087;-64
2022/05/09 07:09:01;;;;;;;15.20;5.93;;;;;;;;;;5020405;28;20110;-65
2022/05/09 07:11:26;;;;;;;11.02;5.47;;;;;;;;;;5018808;28;20484;-64
2022/05/09 07:13:53;;;;;;;10.30;5.65;;;;;;;;;;5022311;28;20025;-65
2022/05/09 07:16:18;;;;;;;11.32;5.22;;;;;;;;;;5004287;28;20391;-65
2022/05/09 07:18:43;;;;;;;13.85;5.97;;;;;;;;;;5021609;28;20033;-65
2022/05/09 07:21:10;;;;;;;12.18;6.00;;;;;;;;;;5021677;28;20030;-65
2022/05/09 07:23:36;;;;;;;13.52;6.50;;;;;;;;;;5022250;28;20013;-67
2022/05/09 07:26:02;;;;;;;10.27;5.70;;;;;;;;;;5018846;28;20399;-65
2022/05/09 07:28:28;;;;;;;16.38;5.80;;;;;;;;;;5021395;28;20026;-64
2022/05/09 07:30:56;;;;;;;14.07;6.05;;;;;;;;;;5021378;28;20061;-65
2022/05/09 07:33:22;;;;;;;15.30;6.85;;;;;;;;;;5020386;28;20095;-64
2022/05/09 07:35:47;;;;;;;13.05;6.10;;;;;;;;;;5021078;28;20079;-65
2022/05/09 07:38:12;;;;;;;12.55;6.03;;;;;;;;;;5018812;28;20044;-66
2022/05/09 07:40:41;;;;;;;13.05;6.03;;;;;;;;;;5021437;28;20080;-65
2022/05/09 07:43:07;;;;;;;11.95;5.97;;;;;;;;;;5018042;28;20021;-66
2022/05/09 07:45:33;;;;;;;13.32;7.07;;;;;;;;;;5019638;28;20384;-65
2022/05/09 07:48:00;;;;;;;13.25;6.90;;;;;;;;;;5003089;28;20029;-65
2022/05/09 07:50:26;;;;;;;13.20;6.22;;;;;;;;;;5005007;28;20467;-65
2022/05/09 07:52:52;;;;;;;15.30;6.38;;;;;;;;;;5022295;28;20037;-64
2022/05/09 07:55:17;;;;;;;13.70;6.00;;;;;;;;;;5000379;28;20721;-67
2022/05/09 07:57:43;;;;;;;13.90;5.90;;;;;;;;;;5019895;28;20550;-65
2022/05/09 08:00:10;;;;;;;16.80;6.95;;;;;;;;;;5023683;28;20037;-65
2022/05/09 08:02:37;;;;;;;14.23;6.95;;;;;;;;;;5025503;28;20048;-65
2022/05/09 08:05:05;;;;;;;13.43;6.13;;;;;;;;;;5025126;28;20056;-65
2022/05/09 08:07:31;;;;;;;12.45;5.93;;;;;;;;;;5027098;28;20030;-66
2022/05/09 08:09:57;;;;;;;12.40;6.57;;;;;;;;;;5024129;28;20040;-65
2022/05/09 08:12:22;;;;;;;19.20;6.53;;;;;;;;;;5023643;28;20094;-65
2022/05/09 08:14:47;;;;;;;16.98;6.18;;;;;;;;;;5027602;28;20245;-65
2022/05/09 08:17:13;;;;;;;11.32;6.22;;;;;;;;;;5026053;28;20450;-65
2022/05/09 08:19:39;;;;;;;13.70;6.30;;;;;;;;;;5025520;28;20053;-65
2022/05/09 08:22:05;;;;;;;9.70;5.20;;;;;;;;;;5026722;28;20061;-66
2022/05/09 08:24:30;;;;;;;16.42;6.05;;;;;;;;;;5023694;28;20136;-64
2022/05/09 08:26:56;;;;;;;16.90;6.05;;;;;;;;;;5023063;28;20459;-65
2022/05/09 08:29:21;;;;;;;11.15;5.38;;;;;;;;;;5024994;28;20037;-66
2022/05/09 08:31:46;;;;;;;13.20;5.35;;;;;;;;;;5026737;28;20523;-65
2022/05/09 08:34:11;;;;;;;14.35;6.45;;;;;;;;;;5026048;28;20021;-65
2022/05/09 08:36:46;;;;;;;9.27;5.35;;;;;;;;;;5027421;28;20022;-65
2022/05/09 08:39:11;;;;;;;13.13;5.30;;;;;;;;;;5009631;28;20139;-65
2022/05/09 08:41:47;;;;;;;16.23;5.55;;;;;;;;;;5024154;28;20476;-64
2022/05/09 08:44:12;;;;;;;12.23;5.75;;;;;;;;;;5026295;28;20075;-65
2022/05/09 08:46:38;;;;;;;11.30;5.07;;;;;;;;;;5027014;28;20025;-65
2022/05/09 08:49:13;;;;;;;14.00;5.40;;;;;;;;;;5024894;28;20262;-65
2022/05/09 08:51:42;;;;;;;11.85;5.70;;;;;;;;;;5026974;28;20033;-66
2022/05/09 08:54:09;;;;;;;10.82;6.00;;;;;;;;;;5021285;28;20045;-65
2022/05/09 08:56:34;;;;;;;11.82;4.80;;;;;;;;;;5022918;28;20460;-66
2022/05/09 08:59:11;;;;;;;11.52;4.80;;;;;;;;;;5008676;28;20053;-65
2022/05/09 09:01:43;;;;;;;10.43;5.38;;;;;;;;;;5024878;28;20458;-64
2022/05/09 09:04:26;;;;;;;8.98;4.10;;;;;;;;;;5024558;28;20080;-65
2022/05/09 09:06:51;;;;;;;;;;;;;;;;;;5026095;28;20473;-65
2022/05/09 09:09:22;;;;;;;9.75;4.00;;;;;;;;;;5024750;28;20409;-66
2022/05/09 09:12:06;;;;;;;12.23;4.93;;;;;;;;;;5021852;28;20441;-66
2022/05/09 09:14:31;;;;;;;9.45;3.70;;;;;;;;;;5024942;28;20392;-64
2022/05/09 09:17:08;;;;;;;8.90;4.50;;;;;;;;;;5025372;28;20026;-65
2022/05/09 09:19:43;;;;;;;12.60;3.70;;;;;;;;;;5024376;28;20253;-65
2022/05/09 09:22:23;;;;;;;8.52;3.10;;;;;;;;;;5025113;28;20033;-65
2022/05/09 09:24:48;;;;;;;7.10;3.70;;;;;;;;;;5024443;28;20029;-65
2022/05/09 09:27:22;;;;;;;5.60;2.45;;;;;;;;;;5018338;28;20037;-65
2022/05/09 09:29:50;;;;;;;8.13;3.13;;;;;;;;;;5025438;28;20065;-65
2022/05/09 09:32:18;;;;;;;6.47;3.80;;;;;;;;;;5021359;28;20028;-64
2022/05/09 09:34:50;;;;;;;8.25;3.25;;;;;;;;;;5024510;28;20449;-65
2022/05/09 09:37:31;;;;;;;6.93;3.10;;;;;;;;;;5026947;28;20029;-64
2022/05/09 09:39:57;;;;;;;6.80;2.63;;;;;;;;;;5020433;28;20039;-64
2022/05/09 09:42:22;;;;;;;6.05;2.58;;;;;;;;;;5025073;28;20051;-65
2022/05/09 09:44:48;;;;;;;7.65;3.33;;;;;;;;;;5025698;28;20029;-65
2022/05/09 09:47:19;;;;;;;6.90;3.00;;;;;;;;;;5022519;28;20021;-65
2022/05/09 09:49:45;;;;;;;6.43;2.70;;;;;;;;;;5024132;28;20097;-66
2022/05/09 09:52:31;;;;;;;5.45;2.88;;;;;;;;;;5022999;28;20021;-67
2022/05/09 09:54:56;;;;;;;5.47;2.40;;;;;;;;;;5023134;28;20033;-65
2022/05/09 09:57:25;;;;;;;5.28;2.53;;;;;;;;;;5018412;28;20445;-64
2022/05/09 09:59:51;;;;;;;5.50;2.53;;;;;;;;;;5023749;28;20025;-66
2022/05/09 10:02:22;;;;;;;5.68;2.42;;;;;;;;;;5021894;28;20395;-65
2022/05/09 10:04:48;;;;;;;9.02;2.80;;;;;;;;;;5022148;28;20788;-65
2022/05/09 10:07:16;;;;;;;7.22;3.10;;;;;;;;;;5021220;28;20100;-66
2022/05/09 10:09:45;;;;;;;4.72;2.30;;;;;;;;;;5023203;28;20072;-65
2022/05/09 10:12:15;;;;;;;6.35;2.55;;;;;;;;;;5018876;28;20372;-65
2022/05/09 10:14:40;;;;;;;5.70;2.10;;;;;;;;;;5022722;28;20025;-66
2022/05/09 10:17:14;;;;;;;5.25;2.30;;;;;;;;;;5022919;28;20022;-66
2022/05/09 10:19:39;;;;;;;6.22;2.10;;;;;;;;;;5022934;28;20020;-64
2022/05/09 10:25:14;;;;;;;8.63;3.05;;;;;;;;;;5022063;28;20070;-64
2022/05/09 10:27:39;;;;;;;7.95;2.65;;;;;;;;;;5018672;28;20021;-65
2022/05/09 10:30:05;;;;;;;5.93;2.70;;;;;;;;;;5021674;28;20466;-66
2022/05/09 10:32:30;;;;;;;6.32;2.78;;;;;;;;;;5019659;28;20529;-67
2022/05/09 10:35:00;;;;;;;7.82;2.83;;;;;;;;;;5021101;28;20167;-65
2022/05/09 10:37:40;;;;;;;6.07;3.17;;;;;;;;;;5020974;28;20017;-65
2022/05/09 10:40:09;;;;;;;8.25;3.05;;;;;;;;;;5022486;28;20445;-66
2022/05/09 10:42:38;;;;;;;8.88;2.80;;;;;;;;;;5017569;28;20025;-65
2022/05/09 10:45:12;;;;;;;5.63;2.85;;;;;;;;;;5022963;28;20079;-66
2022/05/09 10:47:46;;;;;;;8.00;3.38;;;;;;;;;;5022523;28;20360;-66
2022/05/09 10:50:24;;;;;;;9.90;3.03;;;;;;;;;;5020723;28;20021;-65
2022/05/09 10:53:12;;;;;;;6.95;2.85;;;;;;;;;;5021993;28;20028;-65
2022/05/09 10:55:38;;;;;;;5.10;2.90;;;;;;;;;;5018070;28;20031;-65
2022/05/09 10:58:07;;;;;;;7.80;3.22;;;;;;;;;;5016976;28;20041;-65
2022/05/09 11:00:35;;;;;;;8.65;3.75;;;;;;;;;;5019922;28;20025;-64
2022/05/09 11:03:10;;;;;;;5.82;2.67;;;;;;;;;;5021751;28;20029;-65
2022/05/09 11:05:41;;;;;;;8.90;3.13;;;;;;;;;;5018834;28;20512;-63
2022/05/09 11:08:17;;;;;;;9.50;3.50;;;;;;;;;;5019695;28;20023;-64
2022/05/09 11:10:54;;;;;;;6.78;3.78;;;;;;;;;;5017098;28;20057;-66
2022/05/09 11:13:25;;;;;;;8.35;3.20;;;;;;;;;;5018354;28;20053;-64
2022/05/09 11:16:04;;;;;;;6.40;3.05;;;;;;;;;;5019578;28;20478;-64
2022/05/09 11:18:48;;;;;;;7.40;3.15;;;;;;;;;;5019646;28;20644;-66
2022/05/09 11:21:32;;;;;;;9.07;3.28;;;;;;;;;;5021577;28;20065;-64
2022/05/09 11:24:12;;;;;;;8.68;3.72;;;;;;;;;;5017929;28;20500;-65
2022/05/09 11:26:41;;;;;;;7.03;3.92;;;;;;;;;;5016055;28;20906;-66
2022/05/09 11:29:16;;;;;;;7.75;3.38;;;;;;;;;;5023223;28;20022;-65
2022/05/09 11:31:42;;;;;;;7.80;3.83;;;;;;;;;;5021257;28;20110;-67
2022/05/09 11:34:11;;;;;;;7.10;3.65;;;;;;;;;;5023829;28;20013;-64
2022/05/09 11:36:44;;;;;;;10.32;3.58;;;;;;;;;;5020869;28;20029;-66
2022/05/09 11:39:16;;;;;;;9.02;4.10;;;;;;;;;;5021207;28;20629;-66
2022/05/09 11:41:47;;;;;;;7.57;3.40;;;;;;;;;;5017730;28;20045;-66
2022/05/09 11:44:14;;;;;;;8.75;3.88;;;;;;;;;;5020786;28;20014;-65
2022/05/09 11:46:43;;;;;;;8.13;3.80;;;;;;;;;;5020582;28;20060;-65
2022/05/09 11:49:26;;;;;;;7.82;3.10;;;;;;;;;;5022133;28;20017;-65
2022/05/09 11:51:56;;;;;;;8.60;3.60;;;;;;;;;;5020291;28;20029;-66
2022/05/09 11:54:30;;;;;;;10.05;4.03;;;;;;;;;;5018447;28;20017;-66
2022/05/09 11:56:59;;;;;;;7.88;3.95;;;;;;;;;;5018882;28;20182;-66
2022/05/09 11:59:25;;;;;;;6.25;3.55;;;;;;;;;;5022148;28;20018;-66
2022/05/09 12:02:03;;;;;;;6.82;3.85;;;;;;;;;;5022712;28;20075;-67
2022/05/09 12:04:28;;;;;;;6.00;3.38;;;;;;;;;;5019873;28;20108;-66
2022/05/09 12:06:54;;;;;;;9.02;3.90;;;;;;;;;;5020829;28;20105;-65
2022/05/09 12:09:38;;;;;;;9.02;4.05;;;;;;;;;;5019905;28;20045;-65
2022/05/09 12:12:03;;;;;;;8.45;3.83;;;;;;;;;;5018107;28;20049;-66
2022/05/09 12:14:48;;;;;;;8.30;3.35;;;;;;;;;;5019913;28;20084;-67
2022/05/09 12:17:19;;;;;;;9.63;4.18;;;;;;;;;;5020805;28;20017;-65
2022/05/09 12:19:45;;;;;;;9.88;4.53;;;;;;;;;;5021652;28;20018;-65
2022/05/09 12:22:18;;;;;;;11.32;4.75;;;;;;;;;;5021054;28;20029;-65
2022/05/09 12:24:44;;;;;;;6.43;4.35;;;;;;;;;;5016668;28;20448;-66
2022/05/09 12:27:29;;;;;;;10.57;4.75;;;;;;;;;;5018929;28;20093;-64
2022/05/09 12:29:58;;;;;;;11.02;5.18;;;;;;;;;;5021592;28;20391;-66
2022/05/09 12:32:23;;;;;;;8.90;4.50;;;;;;;;;;5019890;28;20052;-66
2022/05/09 12:34:51;;;;;;;11.67;4.90;;;;;;;;;;5021232;28;20117;-65
2022/05/09 12:37:23;;;;;;;9.48;4.55;;;;;;;;;;5022561;28;20267;-64
2022/05/09 12:39:50;;;;;;;9.38;4.80;;;;;;;;;;5018967;28;20113;-64
2022/05/09 12:42:25;;;;;;;7.95;4.10;;;;;;;;;;5016305;28;20033;-65
2022/05/09 12:44:51;;;;;;;8.02;4.63;;;;;;;;;;5022501;28;20028;-66
2022/05/09 12:47:30;;;;;;;9.63;5.20;;;;;;;;;;5026613;28;20331;-66
2022/05/09 12:49:57;;;;;;;9.65;5.03;;;;;;;;;;5026102;28;20021;-65
2022/05/09 12:52:26;;;;;;;11.80;5.43;;;;;;;;;;5024347;28;20037;-65
2022/05/09 12:57:38;;;;;;;10.50;5.50;;;;;;;;;;5020566;28;20063;-65
2022/05/09 13:00:23;;;;;;;14.45;5.80;;;;;;;;;;5026905;28;20040;-65
2022/05/09 13:02:49;;;;;;;10.38;6.38;;;;;;;;;;5025407;28;20099;-65
2022/05/09 13:05:15;;;;;;;14.23;6.65;;;;;;;;;;5024549;28;20464;-64
2022/05/09 13:08:15;;;;;;;10.15;6.75;;;;;;;;;;5024365;28;20111;-65
2022/05/09 13:10:46;;;;;;;14.48;6.95;;;;;;;;;;5020510;28;20496;-64
2022/05/09 13:13:23;;;;;;;11.88;7.45;;;;;;;;;;5022528;28;20029;-65
2022/05/09 13:15:48;;;;;;;13.70;6.85;;;;;;;;;;5023060;28;20159;-65
2022/05/09 13:18:20;;;;;;;10.55;5.97;;;;;;;;;;5024362;28;20464;-65
2022/05/09 13:20:51;;;;;;;11.95;6.90;;;;;;;;;;5023723;28;20108;-64
2022/05/09 13:23:16;;;;;;;11.18;6.63;;;;;;;;;;5023496;28;20369;-64
2022/05/09 13:25:52;;;;;;;11.38;5.53;;;;;;;;;;5021637;28;20056;-65
2022/05/09 13:28:22;;;;;;;11.70;5.20;;;;;;;;;;5006508;28;20125;-66
2022/05/09 13:30:57;;;;;;;8.25;4.53;;;;;;;;;;5023576;28;20054;-65
2022/05/09 13:33:25;;;;;;;11.95;6.15;;;;;;;;;;5022484;28;20124;-65
2022/05/09 13:35:52;;;;;;;16.55;7.80;;;;;;;;;;5023559;28;20140;-65
2022/05/09 13:38:25;;;;;;;12.70;6.13;;;;;;;;;;5021960;28;20158;-64
2022/05/09 13:40:52;;;;;;;16.73;6.88;;;;;;;;;;5005906;28;20552;-65
2022/05/09 13:43:23;;;;;;;15.27;10.02;;;;;;;;;;5005771;28;20088;-67
2022/05/09 13:45:58;;;;;;;15.35;9.57;;;;;;;;;;5023543;28;20032;-66
2022/05/09 13:48:24;;;;;;;19.50;11.25;;;;;;;;;;5023271;28;20492;-65
2022/05/09 13:50:52;;;;;;;17.10;10.45;;;;;;;;;;5022628;28;20025;-65
2022/05/09 13:53:19;;;;;;;16.45;9.60;;;;;;;;;;5020818;28;20146;-64
2022/05/09 13:55:45;;;;;;;16.58;8.95;;;;;;;;;;5019386;28;20044;-64
2022/05/09 13:58:14;;;;;;;16.52;9.65;;;;;;;;;;5022531;28;20193;-66
2022/05/09 14:00:40;;;;;;;14.95;8.77;;;;;;;;;;5020741;28;20021;-67
2022/05/09 14:03:11;;;;;;;15.32;8.32;;;;;;;;;;5021633;28;20114;-65
2022/05/09 14:05:37;;;;;;;14.43;8.13;;;;;;;;;;5021626;28;20045;-64
2022/05/09 14:08:04;;;;;;;12.10;6.38;;;;;;;;;;5023692;28;20155;-65
2022/05/09 14:10:41;;;;;;;9.30;4.18;;;;;;;;;;5005422;28;20519;-66
2022/05/09 14:13:25;;;;;;;10.77;4.95;;;;;;;;;;5025570;28;20025;-65
2022/05/09 14:15:55;;;;;;;7.60;3.50;;;;;;;;;;5022446;28;20025;-65
2022/05/09 14:18:21;;;;;;;9.75;4.90;;;;;;;;;;5021861;28;20052;-64
2022/05/09 14:20:46;;;;;;;9.52;4.95;;;;;;;;;;5023003;28;20048;-64
2022/05/09 14:23:17;;;;;;;10.55;4.80;;;;;;;;;;5022001;28;20468;-65
2022/05/09 14:31:22;;;;;;;8.10;4.15;;;;;;;;;;5023262;28;20141;-65
2022/05/09 14:33:48;;;;;;;7.40;4.30;;;;;;;;;;5024175;28;20736;-65
2022/05/09 14:36:30;;;;;;;8.15;3.45;;;;;;;;;;5025776;28;20026;-65
2022/05/09 14:38:57;;;;;;;7.78;3.17;;;;;;;;;;5005072;28;20017;-64
2022/05/09 14:41:37;;;;;;;8.23;3.88;;;;;;;;;;5020567;28;20026;-65
2022/05/09 14:44:14;;;;;;;8.35;3.80;;;;;;;;;;5024315;28;20116;-65
2022/05/09 14:46:43;;;;;;;9.02;3.92;;;;;;;;;;5021721;28;20027;-65
2022/05/09 14:49:14;;;;;;;11.13;4.90;;;;;;;;;;5025862;28;20014;-65
2022/05/09 14:51:39;;;;;;;6.20;2.53;;;;;;;;;;5021706;28;20025;-65
2022/05/09 14:54:06;;;;;;;7.53;4.05;;;;;;;;;;5022091;28;20025;-66
2022/05/09 14:59:23;;;;;;;9.15;3.22;;;;;;;;;;5025296;28;20056;-64
2022/05/09 15:01:50;;;;;;;5.78;3.53;;;;;;;;;;5022636;28;20442;-65
2022/05/09 15:04:16;;;;;;;8.88;3.15;;;;;;;;;;5023722;28;20042;-64